EDT,Max TemperatureF,Mean TemperatureF,Min TemperatureF,Max Dew PointF,MeanDew PointF,Min DewpointF,Max Humidity, Mean Humidity, Min Humidity, Max Sea Level PressureIn, Mean Sea Level PressureIn, Min Sea Level PressureIn, Max VisibilityMiles, Mean VisibilityMiles, Min VisibilityMiles, Max Wind SpeedMPH, Mean Wind SpeedMPH, Max Gust SpeedMPH,PrecipitationIn, CloudCover, Events, WindDirDegrees
2012-4-1,60,50,39,47,42,36,89,79,63,29.90,29.78,29.70,8,4,2,23,5,29,T,5,Rain,146
2012-4-2,61,51,40,43,36,31,83,60,41,30.03,29.97,29.85,10,10,5,16,8,21,0.01,2,,108
2012-4-3,68,55,42,52,42,29,90,71,50,30.00,29.92,29.83,10,9,2,17,5,22,0.40,4,Rain-Thunderstorm,104
2012-4-4,63,52,41,49,34,28,80,50,29,29.99,29.94,29.86,10,10,9,14,7,24,0.00,0,,33
2012-4-5,51,44,37,33,29,26,70,56,43,30.16,30.05,29.95,10,10,10,16,7,21,0.00,0,,41
2012-4-6,59,44,28,31,25,21,81,51,28,30.33,30.26,30.18,10,10,10,10,3,14,0.00,0,,22
2012-4-7,64,47,30,36,29,22,92,51,23,30.35,30.25,30.13,10,10,10,15,4,17,T,0,,198
2012-4-8,59,49,39,45,34,23,83,55,26,30.19,30.14,30.09,10,10,9,31,14,43,0.02,3,Rain,296
2012-4-9,58,49,39,39,29,19,89,51,26,30.07,29.95,29.90,10,10,10,29,13,38,0.00,2,,276
2012-4-10,40,37,33,30,25,22,75,63,49,30.10,30.01,29.95,10,9,2,23,13,30,T,6,Snow,307
2012-4-11,54,44,34,31,28,25,75,57,39,30.27,30.19,30.07,10,10,10,17,9,24,0.00,3,,322
2012-4-12,59,44,29,32,29,27,93,60,35,30.30,30.24,30.18,10,10,10,16,5,20,0.00,1,,317
2012-4-13,63,47,31,35,31,28,92,54,29,30.27,30.20,30.08,10,10,8,18,6,23,0.00,0,,167
2012-4-14,65,58,50,56,48,31,94,72,41,30.07,29.97,29.89,10,8,4,16,9,23,0.05,7,Rain-Thunderstorm,188
2012-4-15,74,66,58,62,58,55,100,88,62,29.90,29.80,29.70,10,5,1,20,10,25,1.54,7,Rain-Thunderstorm,167
2012-4-16,66,54,42,61,50,36,93,74,55,30.18,29.79,29.60,10,8,2,38,19,55,0.20,7,Rain-Thunderstorm,223
2012-4-17,57,46,34,36,32,27,89,64,39,30.39,30.33,30.20,10,10,10,14,5,17,0.00,0,,311
2012-4-18,67,50,33,44,37,28,89,61,42,30.34,30.17,29.97,10,10,10,21,9,24,T,2,,180
2012-4-19,73,62,51,52,48,45,80,60,46,30.00,29.93,29.79,10,10,8,16,5,31,T,5,Rain,203
2012-4-20,65,52,39,52,44,37,100,84,47,29.95,29.81,29.66,10,6,0,20,10,25,0.41,6,Fog-Rain,319
2012-4-21,54,43,32,36,30,19,89,60,40,30.04,30.00,29.96,10,10,10,17,8,22,0.00,1,,17
2012-4-22,53,43,33,30,25,20,79,52,33,30.06,30.04,30.03,10,10,10,21,10,32,0.00,2,,34
2012-4-23,58,45,31,26,23,19,70,45,25,30.02,29.88,29.74,10,10,10,31,15,39,0.00,0,,333
2012-4-24,60,49,38,32,27,24,70,44,27,29.73,29.70,29.66,10,10,10,29,13,40,0.00,1,,304
2012-4-25,62,49,35,47,39,31,93,71,43,29.81,29.77,29.72,10,10,6,17,5,23,0.18,4,Rain,154
2012-4-26,56,46,36,48,41,21,93,74,43,30.15,29.80,29.65,10,9,5,24,11,33,0.01,6,Thunderstorm,332
2012-4-27,55,42,28,31,23,19,75,47,28,30.30,30.22,30.14,10,10,10,15,4,21,0.00,0,,11
2012-4-28,46,40,34,39,35,29,93,75,53,30.26,30.20,30.14,10,9,3,15,6,22,0.14,7,Rain,88
2012-4-29,65,48,31,40,30,26,92,56,24,30.33,30.26,30.18,10,10,8,13,6,22,0.12,2,Rain,100
2012-4-30,62,53,43,61,51,37,100,89,73,30.16,29.96,29.88,10,6,2,13,6,21,0.48,7,Rain-Thunderstorm,197